sensor_id;sensor_type;location;lat;lon;timestamp;P1;durP1;ratioP1;P2;durP2;ratioP2
16577;SDS011;8401;52.528;13.340;2022-10-17T00:01:10;9.33;;;6.37;;
16577;SDS011;8401;52.528;13.340;2022-10-17T00:03:37;9.63;;;5.93;;
16577;SDS011;8401;52.528;13.340;2022-10-17T00:06:07;8.33;;;5.70;;
16577;SDS011;8401;52.528;13.340;2022-10-17T00:08:35;8.40;;;6.13;;
16577;SDS011;8401;52.528;13.340;2022-10-17T00:11:15;7.93;;;6.20;;
16577;SDS011;8401;52.528;13.340;2022-10-17T00:13:46;8.70;;;6.80;;
16577;SDS011;8401;52.528;13.340;2022-10-17T00:16:13;12.37;;;6.93;;
16577;SDS011;8401;52.528;13.340;2022-10-17T00:18:39;10.23;;;6.60;;
16577;SDS011;8401;52.528;13.340;2022-10-17T00:21:05;9.33;;;7.33;;
16577;SDS011;8401;52.528;13.340;2022-10-17T00:23:38;9.57;;;6.50;;
16577;SDS011;8401;52.528;13.340;2022-10-17T00:26:04;9.50;;;6.87;;
16577;SDS011;8401;52.528;13.340;2022-10-17T00:28:31;8.30;;;6.57;;
16577;SDS011;8401;52.528;13.340;2022-10-17T00:30:57;8.07;;;6.53;;
16577;SDS011;8401;52.528;13.340;2022-10-17T00:33:25;9.93;;;6.90;;
16577;SDS011;8401;52.528;13.340;2022-10-17T00:35:53;8.50;;;6.50;;
16577;SDS011;8401;52.528;13.340;2022-10-17T00:38:30;10.27;;;7.13;;
16577;SDS011;8401;52.528;13.340;2022-10-17T00:40:56;9.17;;;7.00;;
16577;SDS011;8401;52.528;13.340;2022-10-17T00:43:22;9.67;;;6.40;;
16577;SDS011;8401;52.528;13.340;2022-10-17T00:45:48;9.63;;;7.17;;
16577;SDS011;8401;52.528;13.340;2022-10-17T00:48:14;8.17;;;6.33;;
16577;SDS011;8401;52.528;13.340;2022-10-17T00:50:43;8.73;;;6.63;;
16577;SDS011;8401;52.528;13.340;2022-10-17T00:53:16;9.73;;;7.13;;
16577;SDS011;8401;52.528;13.340;2022-10-17T00:55:47;9.30;;;6.10;;
16577;SDS011;8401;52.528;13.340;2022-10-17T00:58:15;8.83;;;6.60;;
16577;SDS011;8401;52.528;13.340;2022-10-17T01:00:41;10.53;;;6.40;;
16577;SDS011;8401;52.528;13.340;2022-10-17T01:03:08;7.93;;;6.17;;
16577;SDS011;8401;52.528;13.340;2022-10-17T01:05:33;6.83;;;6.13;;
16577;SDS011;8401;52.528;13.340;2022-10-17T01:08:00;6.73;;;5.70;;
16577;SDS011;8401;52.528;13.340;2022-10-17T01:10:29;9.33;;;6.23;;
16577;SDS011;8401;52.528;13.340;2022-10-17T01:15:35;6.00;;;5.37;;
16577;SDS011;8401;52.528;13.340;2022-10-17T01:21:10;7.60;;;5.27;;
16577;SDS011;8401;52.528;13.340;2022-10-17T01:26:29;5.77;;;4.93;;
16577;SDS011;8401;52.528;13.340;2022-10-17T01:29:25;5.27;;;4.77;;
16577;SDS011;8401;52.528;13.340;2022-10-17T01:32:01;4.93;;;4.30;;
16577;SDS011;8401;52.528;13.340;2022-10-17T01:39:51;5.50;;;4.50;;
16577;SDS011;8401;52.528;13.340;2022-10-17T01:42:44;10.27;;;5.50;;
16577;SDS011;8401;52.528;13.340;2022-10-17T01:47:49;6.20;;;4.47;;
16577;SDS011;8401;52.528;13.340;2022-10-17T01:50:24;7.17;;;4.40;;
16577;SDS011;8401;52.528;13.340;2022-10-17T01:52:56;5.43;;;4.30;;
16577;SDS011;8401;52.528;13.340;2022-10-17T01:55:29;4.60;;;4.20;;
16577;SDS011;8401;52.528;13.340;2022-10-17T01:58:08;5.97;;;4.30;;
16577;SDS011;8401;52.528;13.340;2022-10-17T02:00:39;5.07;;;3.97;;
16577;SDS011;8401;52.528;13.340;2022-10-17T02:03:08;5.10;;;4.60;;
16577;SDS011;8401;52.528;13.340;2022-10-17T02:05:40;8.97;;;4.97;;
16577;SDS011;8401;52.528;13.340;2022-10-17T02:08:07;5.63;;;4.93;;
16577;SDS011;8401;52.528;13.340;2022-10-17T02:16:02;5.20;;;4.80;;
16577;SDS011;8401;52.528;13.340;2022-10-17T02:21:31;6.93;;;4.70;;
16577;SDS011;8401;52.528;13.340;2022-10-17T02:27:39;5.47;;;4.90;;
16577;SDS011;8401;52.528;13.340;2022-10-17T02:29:46;6.10;;;4.83;;
16577;SDS011;8401;52.528;13.340;2022-10-17T02:32:15;5.33;;;4.53;;
16577;SDS011;8401;52.528;13.340;2022-10-17T02:35:06;5.40;;;4.87;;
16577;SDS011;8401;52.528;13.340;2022-10-17T02:37:34;5.10;;;4.60;;
16577;SDS011;8401;52.528;13.340;2022-10-17T02:40:01;5.87;;;5.10;;
16577;SDS011;8401;52.528;13.340;2022-10-17T02:42:28;5.47;;;4.90;;
16577;SDS011;8401;52.528;13.340;2022-10-17T02:44:57;5.30;;;4.60;;
16577;SDS011;8401;52.528;13.340;2022-10-17T02:47:26;5.00;;;4.50;;
16577;SDS011;8401;52.528;13.340;2022-10-17T02:49:59;5.43;;;4.93;;
16577;SDS011;8401;52.528;13.340;2022-10-17T02:52:35;6.80;;;4.80;;
16577;SDS011;8401;52.528;13.340;2022-10-17T02:55:08;5.50;;;5.00;;
16577;SDS011;8401;52.528;13.340;2022-10-17T02:57:45;5.90;;;4.37;;
16577;SDS011;8401;52.528;13.340;2022-10-17T03:00:14;5.37;;;4.87;;
16577;SDS011;8401;52.528;13.340;2022-10-17T03:02:46;4.93;;;4.53;;
16577;SDS011;8401;52.528;13.340;2022-10-17T03:05:26;5.73;;;4.87;;
16577;SDS011;8401;52.528;13.340;2022-10-17T03:07:53;5.50;;;5.00;;
16577;SDS011;8401;52.528;13.340;2022-10-17T03:10:20;5.67;;;4.83;;
16577;SDS011;8401;52.528;13.340;2022-10-17T03:12:46;5.07;;;4.57;;
16577;SDS011;8401;52.528;13.340;2022-10-17T03:15:12;5.27;;;4.53;;
16577;SDS011;8401;52.528;13.340;2022-10-17T03:17:38;5.80;;;4.77;;
16577;SDS011;8401;52.528;13.340;2022-10-17T03:20:04;5.50;;;5.00;;
16577;SDS011;8401;52.528;13.340;2022-10-17T03:22:30;8.37;;;4.93;;
16577;SDS011;8401;52.528;13.340;2022-10-17T03:24:56;5.17;;;4.67;;
16577;SDS011;8401;52.528;13.340;2022-10-17T03:27:22;7.40;;;5.10;;
16577;SDS011;8401;52.528;13.340;2022-10-17T03:29:48;6.40;;;5.00;;
16577;SDS011;8401;52.528;13.340;2022-10-17T03:32:13;8.30;;;4.93;;
16577;SDS011;8401;52.528;13.340;2022-10-17T03:34:39;7.37;;;5.57;;
16577;SDS011;8401;52.528;13.340;2022-10-17T03:37:04;5.67;;;5.07;;
16577;SDS011;8401;52.528;13.340;2022-10-17T03:39:30;5.97;;;5.20;;
16577;SDS011;8401;52.528;13.340;2022-10-17T03:41:56;6.80;;;4.90;;
16577;SDS011;8401;52.528;13.340;2022-10-17T03:44:22;5.07;;;4.50;;
16577;SDS011;8401;52.528;13.340;2022-10-17T03:46:47;6.60;;;5.23;;
16577;SDS011;8401;52.528;13.340;2022-10-17T03:49:13;6.80;;;5.07;;
16577;SDS011;8401;52.528;13.340;2022-10-17T03:51:38;5.90;;;5.30;;
16577;SDS011;8401;52.528;13.340;2022-10-17T03:54:04;5.40;;;4.90;;
16577;SDS011;8401;52.528;13.340;2022-10-17T03:56:30;6.83;;;5.10;;
16577;SDS011;8401;52.528;13.340;2022-10-17T03:58:55;6.43;;;5.00;;
16577;SDS011;8401;52.528;13.340;2022-10-17T04:01:21;6.10;;;5.43;;
16577;SDS011;8401;52.528;13.340;2022-10-17T04:03:49;5.90;;;5.10;;
16577;SDS011;8401;52.528;13.340;2022-10-17T04:06:15;5.90;;;5.30;;
16577;SDS011;8401;52.528;13.340;2022-10-17T04:08:41;7.00;;;5.27;;
16577;SDS011;8401;52.528;13.340;2022-10-17T04:11:07;8.00;;;7.13;;
16577;SDS011;8401;52.528;13.340;2022-10-17T04:13:34;6.10;;;5.50;;
16577;SDS011;8401;52.528;13.340;2022-10-17T04:16:04;7.73;;;5.73;;
16577;SDS011;8401;52.528;13.340;2022-10-17T04:18:31;7.40;;;6.60;;
16577;SDS011;8401;52.528;13.340;2022-10-17T04:20:57;10.67;;;8.70;;
16577;SDS011;8401;52.528;13.340;2022-10-17T04:23:25;10.73;;;6.90;;
16577;SDS011;8401;52.528;13.340;2022-10-17T04:25:54;6.83;;;5.87;;
16577;SDS011;8401;52.528;13.340;2022-10-17T04:28:21;5.90;;;5.07;;
16577;SDS011;8401;52.528;13.340;2022-10-17T04:30:46;5.67;;;5.07;;
16577;SDS011;8401;52.528;13.340;2022-10-17T04:33:12;5.83;;;5.13;;
16577;SDS011;8401;52.528;13.340;2022-10-17T04:35:37;6.23;;;5.63;;
16577;SDS011;8401;52.528;13.340;2022-10-17T04:38:03;6.97;;;5.20;;
16577;SDS011;8401;52.528;13.340;2022-10-17T04:40:28;6.87;;;5.40;;
16577;SDS011;8401;52.528;13.340;2022-10-17T04:42:54;6.33;;;5.57;;
16577;SDS011;8401;52.528;13.340;2022-10-17T04:45:20;5.57;;;5.07;;
16577;SDS011;8401;52.528;13.340;2022-10-17T04:47:45;7.03;;;5.70;;
16577;SDS011;8401;52.528;13.340;2022-10-17T04:50:11;6.03;;;5.43;;
16577;SDS011;8401;52.528;13.340;2022-10-17T04:52:36;6.67;;;5.73;;
16577;SDS011;8401;52.528;13.340;2022-10-17T04:55:03;10.83;;;5.70;;
16577;SDS011;8401;52.528;13.340;2022-10-17T04:57:29;6.90;;;6.13;;
16577;SDS011;8401;52.528;13.340;2022-10-17T04:59:58;6.67;;;5.43;;
16577;SDS011;8401;52.528;13.340;2022-10-17T05:02:23;6.00;;;5.50;;
16577;SDS011;8401;52.528;13.340;2022-10-17T05:04:49;6.67;;;5.10;;
16577;SDS011;8401;52.528;13.340;2022-10-17T05:07:14;9.07;;;5.77;;
16577;SDS011;8401;52.528;13.340;2022-10-17T05:09:40;6.53;;;5.63;;
16577;SDS011;8401;52.528;13.340;2022-10-17T05:12:05;6.47;;;5.87;;
16577;SDS011;8401;52.528;13.340;2022-10-17T05:14:31;6.13;;;5.20;;
16577;SDS011;8401;52.528;13.340;2022-10-17T05:16:56;6.13;;;5.27;;
16577;SDS011;8401;52.528;13.340;2022-10-17T05:19:22;5.43;;;4.93;;
16577;SDS011;8401;52.528;13.340;2022-10-17T05:21:47;7.77;;;5.93;;
16577;SDS011;8401;52.528;13.340;2022-10-17T05:24:13;6.33;;;5.70;;
16577;SDS011;8401;52.528;13.340;2022-10-17T05:26:39;7.37;;;5.30;;
16577;SDS011;8401;52.528;13.340;2022-10-17T05:29:05;7.30;;;5.23;;
16577;SDS011;8401;52.528;13.340;2022-10-17T05:31:31;7.60;;;5.60;;
16577;SDS011;8401;52.528;13.340;2022-10-17T05:34:00;6.30;;;5.50;;
16577;SDS011;8401;52.528;13.340;2022-10-17T05:36:26;5.67;;;5.17;;
16577;SDS011;8401;52.528;13.340;2022-10-17T05:38:52;5.07;;;4.43;;
16577;SDS011;8401;52.528;13.340;2022-10-17T05:41:18;6.77;;;5.27;;
16577;SDS011;8401;52.528;13.340;2022-10-17T05:43:44;7.20;;;6.43;;
16577;SDS011;8401;52.528;13.340;2022-10-17T05:46:10;5.60;;;5.03;;
16577;SDS011;8401;52.528;13.340;2022-10-17T05:48:35;7.07;;;5.90;;
16577;SDS011;8401;52.528;13.340;2022-10-17T05:51:02;6.63;;;5.10;;
16577;SDS011;8401;52.528;13.340;2022-10-17T05:53:32;9.33;;;5.93;;
16577;SDS011;8401;52.528;13.340;2022-10-17T05:56:00;8.10;;;5.53;;
16577;SDS011;8401;52.528;13.340;2022-10-17T05:58:26;6.63;;;5.23;;
16577;SDS011;8401;52.528;13.340;2022-10-17T06:01:03;6.73;;;5.93;;
16577;SDS011;8401;52.528;13.340;2022-10-17T06:03:30;7.30;;;5.90;;
16577;SDS011;8401;52.528;13.340;2022-10-17T06:06:01;7.73;;;5.83;;
16577;SDS011;8401;52.528;13.340;2022-10-17T06:08:28;7.50;;;5.30;;
16577;SDS011;8401;52.528;13.340;2022-10-17T06:10:54;8.17;;;5.50;;
16577;SDS011;8401;52.528;13.340;2022-10-17T06:13:19;5.80;;;4.97;;
16577;SDS011;8401;52.528;13.340;2022-10-17T06:15:45;7.27;;;5.63;;
16577;SDS011;8401;52.528;13.340;2022-10-17T06:18:11;6.80;;;5.67;;
16577;SDS011;8401;52.528;13.340;2022-10-17T06:20:36;8.67;;;5.63;;
16577;SDS011;8401;52.528;13.340;2022-10-17T06:23:02;8.87;;;6.10;;
16577;SDS011;8401;52.528;13.340;2022-10-17T06:25:31;7.83;;;5.67;;
16577;SDS011;8401;52.528;13.340;2022-10-17T06:27:57;6.20;;;5.53;;
16577;SDS011;8401;52.528;13.340;2022-10-17T06:30:23;6.97;;;5.70;;
16577;SDS011;8401;52.528;13.340;2022-10-17T06:32:50;6.30;;;5.37;;
16577;SDS011;8401;52.528;13.340;2022-10-17T06:35:16;8.30;;;6.20;;
16577;SDS011;8401;52.528;13.340;2022-10-17T06:37:41;8.07;;;6.13;;
16577;SDS011;8401;52.528;13.340;2022-10-17T06:40:07;7.40;;;5.90;;
16577;SDS011;8401;52.528;13.340;2022-10-17T06:42:34;10.57;;;6.03;;
16577;SDS011;8401;52.528;13.340;2022-10-17T06:45:00;7.97;;;6.10;;
16577;SDS011;8401;52.528;13.340;2022-10-17T06:47:25;11.93;;;6.53;;
16577;SDS011;8401;52.528;13.340;2022-10-17T06:49:51;7.53;;;5.67;;
16577;SDS011;8401;52.528;13.340;2022-10-17T06:52:16;7.10;;;6.33;;
16577;SDS011;8401;52.528;13.340;2022-10-17T06:54:42;6.70;;;5.90;;
16577;SDS011;8401;52.528;13.340;2022-10-17T06:57:08;11.27;;;6.50;;
16577;SDS011;8401;52.528;13.340;2022-10-17T06:59:34;11.97;;;5.33;;
16577;SDS011;8401;52.528;13.340;2022-10-17T07:02:00;9.80;;;6.03;;
16577;SDS011;8401;52.528;13.340;2022-10-17T07:04:26;7.47;;;6.43;;
16577;SDS011;8401;52.528;13.340;2022-10-17T07:06:52;7.03;;;5.73;;
16577;SDS011;8401;52.528;13.340;2022-10-17T07:09:17;8.97;;;5.63;;
16577;SDS011;8401;52.528;13.340;2022-10-17T07:11:43;7.23;;;5.70;;
16577;SDS011;8401;52.528;13.340;2022-10-17T07:14:09;8.73;;;5.27;;
16577;SDS011;8401;52.528;13.340;2022-10-17T07:16:35;7.50;;;5.47;;
16577;SDS011;8401;52.528;13.340;2022-10-17T07:19:01;6.77;;;4.90;;
16577;SDS011;8401;52.528;13.340;2022-10-17T07:21:26;6.47;;;5.87;;
16577;SDS011;8401;52.528;13.340;2022-10-17T07:23:52;8.60;;;4.87;;
16577;SDS011;8401;52.528;13.340;2022-10-17T07:26:18;5.90;;;4.97;;
16577;SDS011;8401;52.528;13.340;2022-10-17T07:28:45;5.90;;;4.97;;
16577;SDS011;8401;52.528;13.340;2022-10-17T07:31:16;5.20;;;4.70;;
16577;SDS011;8401;52.528;13.340;2022-10-17T07:33:43;5.63;;;4.50;;
16577;SDS011;8401;52.528;13.340;2022-10-17T07:36:09;5.90;;;4.80;;
16577;SDS011;8401;52.528;13.340;2022-10-17T07:38:35;5.57;;;4.70;;
16577;SDS011;8401;52.528;13.340;2022-10-17T07:41:02;7.00;;;4.67;;
16577;SDS011;8401;52.528;13.340;2022-10-17T07:43:30;5.40;;;4.40;;
16577;SDS011;8401;52.528;13.340;2022-10-17T07:45:56;5.23;;;4.23;;
16577;SDS011;8401;52.528;13.340;2022-10-17T07:48:22;8.47;;;5.10;;
16577;SDS011;8401;52.528;13.340;2022-10-17T07:50:48;6.50;;;5.00;;
16577;SDS011;8401;52.528;13.340;2022-10-17T07:53:14;5.73;;;4.57;;
16577;SDS011;8401;52.528;13.340;2022-10-17T07:55:40;7.03;;;4.57;;
16577;SDS011;8401;52.528;13.340;2022-10-17T07:58:07;5.73;;;4.33;;
16577;SDS011;8401;52.528;13.340;2022-10-17T08:00:33;9.60;;;5.07;;
16577;SDS011;8401;52.528;13.340;2022-10-17T08:03:00;5.73;;;3.73;;
16577;SDS011;8401;52.528;13.340;2022-10-17T08:05:25;7.00;;;4.40;;
16577;SDS011;8401;52.528;13.340;2022-10-17T08:07:51;5.30;;;4.57;;
16577;SDS011;8401;52.528;13.340;2022-10-17T08:10:17;5.57;;;3.90;;
16577;SDS011;8401;52.528;13.340;2022-10-17T08:12:42;5.43;;;3.80;;
16577;SDS011;8401;52.528;13.340;2022-10-17T08:15:08;6.77;;;4.37;;
16577;SDS011;8401;52.528;13.340;2022-10-17T08:17:35;6.43;;;3.40;;
16577;SDS011;8401;52.528;13.340;2022-10-17T08:20:02;5.03;;;4.07;;
16577;SDS011;8401;52.528;13.340;2022-10-17T08:22:29;5.73;;;3.80;;
16577;SDS011;8401;52.528;13.340;2022-10-17T08:24:55;4.70;;;3.77;;
16577;SDS011;8401;52.528;13.340;2022-10-17T08:27:21;3.60;;;3.30;;
16577;SDS011;8401;52.528;13.340;2022-10-17T08:29:49;3.90;;;3.50;;
16577;SDS011;8401;52.528;13.340;2022-10-17T08:32:19;5.17;;;3.43;;
16577;SDS011;8401;52.528;13.340;2022-10-17T08:34:45;4.57;;;3.83;;
16577;SDS011;8401;52.528;13.340;2022-10-17T08:37:10;3.40;;;3.10;;
16577;SDS011;8401;52.528;13.340;2022-10-17T08:39:37;6.03;;;3.63;;
16577;SDS011;8401;52.528;13.340;2022-10-17T08:44:50;4.40;;;3.63;;
16577;SDS011;8401;52.528;13.340;2022-10-17T08:50:10;5.68;;;3.20;;
16577;SDS011;8401;52.528;13.340;2022-10-17T08:52:44;5.38;;;3.70;;
16577;SDS011;8401;52.528;13.340;2022-10-17T08:55:37;5.90;;;3.30;;
16577;SDS011;8401;52.528;13.340;2022-10-17T08:58:11;4.72;;;3.60;;
16577;SDS011;8401;52.528;13.340;2022-10-17T09:00:56;4.40;;;3.30;;
16577;SDS011;8401;52.528;13.340;2022-10-17T09:06:24;4.32;;;3.15;;
16577;SDS011;8401;52.528;13.340;2022-10-17T09:12:12;4.63;;;2.55;;
16577;SDS011;8401;52.528;13.340;2022-10-17T09:14:52;6.47;;;2.97;;
16577;SDS011;8401;52.528;13.340;2022-10-17T09:17:50;5.10;;;3.08;;
16577;SDS011;8401;52.528;13.340;2022-10-17T09:20:25;5.93;;;2.70;;
16577;SDS011;8401;52.528;13.340;2022-10-17T09:23:38;4.93;;;2.53;;
16577;SDS011;8401;52.528;13.340;2022-10-17T09:25:55;6.30;;;2.97;;
16577;SDS011;8401;52.528;13.340;2022-10-17T09:28:35;5.38;;;2.33;;
16577;SDS011;8401;52.528;13.340;2022-10-17T09:33:41;4.28;;;3.10;;
16577;SDS011;8401;52.528;13.340;2022-10-17T09:39:01;5.45;;;2.55;;
16577;SDS011;8401;52.528;13.340;2022-10-17T09:41:47;5.45;;;2.30;;
16577;SDS011;8401;52.528;13.340;2022-10-17T09:44:16;4.75;;;2.80;;
16577;SDS011;8401;52.528;13.340;2022-10-17T09:46:55;6.93;;;2.38;;
16577;SDS011;8401;52.528;13.340;2022-10-17T09:49:47;3.92;;;3.15;;
16577;SDS011;8401;52.528;13.340;2022-10-17T09:55:30;4.00;;;3.08;;
16577;SDS011;8401;52.528;13.340;2022-10-17T09:58:08;3.00;;;2.67;;
16577;SDS011;8401;52.528;13.340;2022-10-17T10:00:36;3.95;;;2.38;;
16577;SDS011;8401;52.528;13.340;2022-10-17T10:03:17;5.30;;;2.65;;
16577;SDS011;8401;52.528;13.340;2022-10-17T10:06:04;5.45;;;2.42;;
16577;SDS011;8401;52.528;13.340;2022-10-17T10:08:48;7.53;;;3.00;;
16577;SDS011;8401;52.528;13.340;2022-10-17T10:11:25;4.18;;;2.83;;
16577;SDS011;8401;52.528;13.340;2022-10-17T10:14:11;3.25;;;2.60;;
16577;SDS011;8401;52.528;13.340;2022-10-17T10:16:44;5.00;;;3.00;;
16577;SDS011;8401;52.528;13.340;2022-10-17T10:22:01;5.65;;;3.13;;
16577;SDS011;8401;52.528;13.340;2022-10-17T10:24:40;2.92;;;2.63;;
16577;SDS011;8401;52.528;13.340;2022-10-17T10:27:09;5.75;;;2.75;;
16577;SDS011;8401;52.528;13.340;2022-10-17T10:29:40;3.85;;;2.90;;
16577;SDS011;8401;52.528;13.340;2022-10-17T10:32:24;5.72;;;2.75;;
16577;SDS011;8401;52.528;13.340;2022-10-17T10:37:28;4.85;;;3.00;;
16577;SDS011;8401;52.528;13.340;2022-10-17T10:40:03;3.42;;;2.47;;
16577;SDS011;8401;52.528;13.340;2022-10-17T10:42:34;5.70;;;2.10;;
16577;SDS011;8401;52.528;13.340;2022-10-17T10:45:14;6.78;;;2.70;;
16577;SDS011;8401;52.528;13.340;2022-10-17T10:47:57;3.00;;;2.30;;
16577;SDS011;8401;52.528;13.340;2022-10-17T10:50:26;3.75;;;2.78;;
16577;SDS011;8401;52.528;13.340;2022-10-17T10:55:53;4.25;;;2.55;;
16577;SDS011;8401;52.528;13.340;2022-10-17T10:58:26;3.75;;;2.30;;
16577;SDS011;8401;52.528;13.340;2022-10-17T11:01:05;4.35;;;2.35;;
16577;SDS011;8401;52.528;13.340;2022-10-17T11:04:00;6.82;;;2.63;;
16577;SDS011;8401;52.528;13.340;2022-10-17T11:06:44;4.32;;;2.58;;
16577;SDS011;8401;52.528;13.340;2022-10-17T11:11:41;5.63;;;3.13;;
16577;SDS011;8401;52.528;13.340;2022-10-17T11:16:55;2.97;;;2.20;;
16577;SDS011;8401;52.528;13.340;2022-10-17T11:19:34;2.20;;;2.00;;
16577;SDS011;8401;52.528;13.340;2022-10-17T11:22:14;3.65;;;2.60;;
16577;SDS011;8401;52.528;13.340;2022-10-17T11:24:53;3.75;;;2.50;;
16577;SDS011;8401;52.528;13.340;2022-10-17T11:27:24;3.97;;;2.30;;
16577;SDS011;8401;52.528;13.340;2022-10-17T11:29:54;4.60;;;2.88;;
16577;SDS011;8401;52.528;13.340;2022-10-17T11:32:43;5.78;;;2.53;;
16577;SDS011;8401;52.528;13.340;2022-10-17T11:35:23;3.28;;;2.30;;
16577;SDS011;8401;52.528;13.340;2022-10-17T11:38:29;4.05;;;2.50;;
16577;SDS011;8401;52.528;13.340;2022-10-17T11:40:51;3.28;;;2.70;;
16577;SDS011;8401;52.528;13.340;2022-10-17T11:43:23;5.28;;;2.60;;
16577;SDS011;8401;52.528;13.340;2022-10-17T11:46:06;6.50;;;3.00;;
16577;SDS011;8401;52.528;13.340;2022-10-17T11:51:16;5.07;;;2.63;;
16577;SDS011;8401;52.528;13.340;2022-10-17T11:53:55;5.55;;;2.90;;
16577;SDS011;8401;52.528;13.340;2022-10-17T11:56:50;4.00;;;2.65;;
16577;SDS011;8401;52.528;13.340;2022-10-17T12:02:13;3.22;;;2.13;;
16577;SDS011;8401;52.528;13.340;2022-10-17T12:07:51;4.78;;;2.45;;
16577;SDS011;8401;52.528;13.340;2022-10-17T12:10:31;5.20;;;2.67;;
16577;SDS011;8401;52.528;13.340;2022-10-17T12:16:35;3.33;;;2.47;;
16577;SDS011;8401;52.528;13.340;2022-10-17T12:21:27;5.47;;;3.20;;
16577;SDS011;8401;52.528;13.340;2022-10-17T12:23:53;3.40;;;2.80;;
16577;SDS011;8401;52.528;13.340;2022-10-17T12:26:26;3.00;;;2.40;;
16577;SDS011;8401;52.528;13.340;2022-10-17T12:28:53;4.32;;;2.75;;
16577;SDS011;8401;52.528;13.340;2022-10-17T12:31:23;6.20;;;2.95;;
16577;SDS011;8401;52.528;13.340;2022-10-17T12:33:51;16.30;;;2.28;;
16577;SDS011;8401;52.528;13.340;2022-10-17T12:38:48;3.90;;;2.55;;
16577;SDS011;8401;52.528;13.340;2022-10-17T12:41:16;4.22;;;3.10;;
16577;SDS011;8401;52.528;13.340;2022-10-17T12:52:21;4.45;;;2.63;;
16577;SDS011;8401;52.528;13.340;2022-10-17T13:00:04;4.28;;;3.13;;
16577;SDS011;8401;52.528;13.340;2022-10-17T13:02:38;5.10;;;2.67;;
16577;SDS011;8401;52.528;13.340;2022-10-17T13:05:06;3.80;;;2.70;;
16577;SDS011;8401;52.528;13.340;2022-10-17T13:07:36;2.67;;;2.08;;
16577;SDS011;8401;52.528;13.340;2022-10-17T13:10:14;5.43;;;2.88;;
16577;SDS011;8401;52.528;13.340;2022-10-17T13:12:46;5.47;;;2.67;;
16577;SDS011;8401;52.528;13.340;2022-10-17T13:15:15;7.20;;;2.63;;
16577;SDS011;8401;52.528;13.340;2022-10-17T13:17:43;5.22;;;2.47;;
16577;SDS011;8401;52.528;13.340;2022-10-17T13:20:19;4.43;;;2.80;;
16577;SDS011;8401;52.528;13.340;2022-10-17T13:22:47;7.18;;;2.53;;
16577;SDS011;8401;52.528;13.340;2022-10-17T13:25:14;6.93;;;2.70;;
16577;SDS011;8401;52.528;13.340;2022-10-17T13:27:41;4.70;;;2.30;;
16577;SDS011;8401;52.528;13.340;2022-10-17T13:30:21;5.10;;;2.60;;
16577;SDS011;8401;52.528;13.340;2022-10-17T13:32:47;5.78;;;2.53;;
16577;SDS011;8401;52.528;13.340;2022-10-17T13:35:14;4.47;;;2.55;;
16577;SDS011;8401;52.528;13.340;2022-10-17T13:37:42;6.05;;;2.60;;
16577;SDS011;8401;52.528;13.340;2022-10-17T13:40:17;2.67;;;1.92;;
16577;SDS011;8401;52.528;13.340;2022-10-17T13:42:51;2.58;;;2.22;;
16577;SDS011;8401;52.528;13.340;2022-10-17T13:45:21;7.80;;;2.20;;
16577;SDS011;8401;52.528;13.340;2022-10-17T13:47:51;2.63;;;1.83;;
16577;SDS011;8401;52.528;13.340;2022-10-17T13:50:36;6.03;;;2.33;;
16577;SDS011;8401;52.528;13.340;2022-10-17T13:53:05;5.82;;;2.20;;
16577;SDS011;8401;52.528;13.340;2022-10-17T13:56:02;5.72;;;3.55;;
16577;SDS011;8401;52.528;13.340;2022-10-17T13:58:31;4.03;;;2.22;;
16577;SDS011;8401;52.528;13.340;2022-10-17T14:01:03;3.65;;;1.83;;
16577;SDS011;8401;52.528;13.340;2022-10-17T14:03:30;7.97;;;1.88;;
16577;SDS011;8401;52.528;13.340;2022-10-17T14:06:06;6.70;;;2.35;;
16577;SDS011;8401;52.528;13.340;2022-10-17T14:09:07;3.03;;;2.00;;
16577;SDS011;8401;52.528;13.340;2022-10-17T14:11:41;6.70;;;1.98;;
16577;SDS011;8401;52.528;13.340;2022-10-17T14:14:23;5.40;;;2.28;;
16577;SDS011;8401;52.528;13.340;2022-10-17T14:16:50;4.28;;;2.58;;
16577;SDS011;8401;52.528;13.340;2022-10-17T14:19:24;3.85;;;2.33;;
16577;SDS011;8401;52.528;13.340;2022-10-17T14:24:58;4.03;;;2.42;;
16577;SDS011;8401;52.528;13.340;2022-10-17T14:27:33;3.60;;;2.03;;
16577;SDS011;8401;52.528;13.340;2022-10-17T14:30:04;5.40;;;2.30;;
16577;SDS011;8401;52.528;13.340;2022-10-17T14:32:50;5.22;;;3.25;;
16577;SDS011;8401;52.528;13.340;2022-10-17T14:35:27;9.15;;;4.68;;
16577;SDS011;8401;52.528;13.340;2022-10-17T14:37:58;7.43;;;4.07;;
16577;SDS011;8401;52.528;13.340;2022-10-17T14:40:26;4.78;;;2.97;;
16577;SDS011;8401;52.528;13.340;2022-10-17T14:42:54;3.28;;;2.80;;
16577;SDS011;8401;52.528;13.340;2022-10-17T14:45:37;5.13;;;2.42;;
16577;SDS011;8401;52.528;13.340;2022-10-17T14:48:11;4.10;;;2.83;;
16577;SDS011;8401;52.528;13.340;2022-10-17T14:50:40;4.47;;;2.63;;
16577;SDS011;8401;52.528;13.340;2022-10-17T14:55:36;6.10;;;2.65;;
16577;SDS011;8401;52.528;13.340;2022-10-17T14:58:22;6.25;;;2.78;;
16577;SDS011;8401;52.528;13.340;2022-10-17T15:00:53;5.10;;;2.95;;
16577;SDS011;8401;52.528;13.340;2022-10-17T15:03:18;6.93;;;2.60;;
16577;SDS011;8401;52.528;13.340;2022-10-17T15:05:45;4.10;;;3.05;;
16577;SDS011;8401;52.528;13.340;2022-10-17T15:08:15;3.78;;;2.95;;
16577;SDS011;8401;52.528;13.340;2022-10-17T15:10:42;4.68;;;2.67;;
16577;SDS011;8401;52.528;13.340;2022-10-17T15:13:09;4.53;;;3.08;;
16577;SDS011;8401;52.528;13.340;2022-10-17T15:15:36;5.25;;;3.15;;
16577;SDS011;8401;52.528;13.340;2022-10-17T15:18:03;7.20;;;3.30;;
16577;SDS011;8401;52.528;13.340;2022-10-17T15:20:29;4.90;;;2.83;;
16577;SDS011;8401;52.528;13.340;2022-10-17T15:22:56;7.07;;;2.50;;
16577;SDS011;8401;52.528;13.340;2022-10-17T15:25:24;4.53;;;2.60;;
16577;SDS011;8401;52.528;13.340;2022-10-17T15:27:50;5.28;;;3.10;;
16577;SDS011;8401;52.528;13.340;2022-10-17T15:30:18;3.65;;;2.47;;
16577;SDS011;8401;52.528;13.340;2022-10-17T15:32:49;4.10;;;2.75;;
16577;SDS011;8401;52.528;13.340;2022-10-17T15:35:15;7.13;;;2.90;;
16577;SDS011;8401;52.528;13.340;2022-10-17T15:37:41;4.80;;;3.00;;
16577;SDS011;8401;52.528;13.340;2022-10-17T15:40:09;3.72;;;3.20;;
16577;SDS011;8401;52.528;13.340;2022-10-17T15:42:38;4.38;;;2.67;;
16577;SDS011;8401;52.528;13.340;2022-10-17T15:45:04;6.30;;;2.92;;
16577;SDS011;8401;52.528;13.340;2022-10-17T15:47:31;4.63;;;3.45;;
16577;SDS011;8401;52.528;13.340;2022-10-17T15:49:57;6.30;;;4.38;;
16577;SDS011;8401;52.528;13.340;2022-10-17T15:52:24;3.05;;;2.78;;
16577;SDS011;8401;52.528;13.340;2022-10-17T15:54:51;5.68;;;2.92;;
16577;SDS011;8401;52.528;13.340;2022-10-17T15:57:21;7.05;;;2.78;;
16577;SDS011;8401;52.528;13.340;2022-10-17T15:59:50;6.30;;;3.45;;
16577;SDS011;8401;52.528;13.340;2022-10-17T16:02:17;7.70;;;3.80;;
16577;SDS011;8401;52.528;13.340;2022-10-17T16:04:44;6.85;;;4.30;;
16577;SDS011;8401;52.528;13.340;2022-10-17T16:07:11;4.05;;;3.17;;
16577;SDS011;8401;52.528;13.340;2022-10-17T16:09:37;7.00;;;3.90;;
16577;SDS011;8401;52.528;13.340;2022-10-17T16:12:03;9.07;;;2.97;;
16577;SDS011;8401;52.528;13.340;2022-10-17T16:14:31;5.57;;;3.45;;
16577;SDS011;8401;52.528;13.340;2022-10-17T16:16:57;8.68;;;3.70;;
16577;SDS011;8401;52.528;13.340;2022-10-17T16:19:24;4.20;;;2.90;;
16577;SDS011;8401;52.528;13.340;2022-10-17T16:21:54;7.45;;;3.35;;
16577;SDS011;8401;52.528;13.340;2022-10-17T16:24:21;6.70;;;4.10;;
16577;SDS011;8401;52.528;13.340;2022-10-17T16:26:47;4.47;;;3.20;;
16577;SDS011;8401;52.528;13.340;2022-10-17T16:29:13;6.53;;;3.60;;
16577;SDS011;8401;52.528;13.340;2022-10-17T16:31:39;6.32;;;2.92;;
16577;SDS011;8401;52.528;13.340;2022-10-17T16:34:07;6.25;;;2.90;;
16577;SDS011;8401;52.528;13.340;2022-10-17T16:36:33;4.05;;;2.83;;
16577;SDS011;8401;52.528;13.340;2022-10-17T16:38:59;7.35;;;3.95;;
16577;SDS011;8401;52.528;13.340;2022-10-17T16:41:26;6.50;;;3.92;;
16577;SDS011;8401;52.528;13.340;2022-10-17T16:43:55;7.95;;;4.25;;